createdAt,value
2023-07-08T00:01:20.843Z,16.62
2023-07-08T00:03:50.703Z,16.62
2023-07-08T00:06:27.690Z,16.62
2023-07-08T00:08:57.144Z,16.62
2023-07-08T00:11:27.953Z,16.60
2023-07-08T00:13:56.443Z,16.60
2023-07-08T00:16:25.423Z,16.60
2023-07-08T00:18:53.813Z,16.59
2023-07-08T00:21:22.142Z,16.58
2023-07-08T00:23:52.603Z,16.57
2023-07-08T00:26:26.147Z,16.56
2023-07-08T00:28:55.173Z,16.55
2023-07-08T00:31:25.896Z,16.55
2023-07-08T00:33:57.263Z,16.54
2023-07-08T00:36:29.165Z,16.52
2023-07-08T00:39:00.788Z,16.52
2023-07-08T00:41:34.984Z,16.51
2023-07-08T00:44:03.914Z,16.52
2023-07-08T00:46:32.244Z,16.51
2023-07-08T00:49:21.829Z,16.50
2023-07-08T00:51:50.170Z,16.50
2023-07-08T00:54:21.045Z,16.49
2023-07-08T00:57:00.792Z,16.50
2023-07-08T00:59:37.776Z,16.49
2023-07-08T01:02:10.575Z,16.48
2023-07-08T01:04:50.246Z,16.47
2023-07-08T01:07:22.961Z,16.46
2023-07-08T01:10:03.864Z,16.45
2023-07-08T01:12:37.846Z,16.45
2023-07-08T01:15:09.270Z,16.44
2023-07-08T01:17:39.089Z,16.44
2023-07-08T01:20:11.426Z,16.43
2023-07-08T01:22:41.539Z,16.42
2023-07-08T01:25:11.817Z,16.40
2023-07-08T01:27:44.231Z,16.39
2023-07-08T01:30:13.429Z,16.38
2023-07-08T01:32:48.976Z,16.37
2023-07-08T01:35:18.313Z,16.36
2023-07-08T01:37:54.571Z,16.36
2023-07-08T01:40:22.928Z,16.33
2023-07-08T01:42:51.916Z,16.33
2023-07-08T01:45:22.733Z,16.31
2023-07-08T01:47:58.423Z,16.28
2023-07-08T01:50:28.877Z,16.29
2023-07-08T01:52:59.900Z,16.27
2023-07-08T01:55:31.898Z,16.25
2023-07-08T01:58:00.592Z,16.22
2023-07-08T02:00:29.137Z,16.19
2023-07-08T02:02:57.655Z,16.18
2023-07-08T02:05:26.315Z,16.17
2023-07-08T02:07:54.724Z,16.16
2023-07-08T02:10:23.331Z,16.15
2023-07-08T02:12:51.737Z,16.14
2023-07-08T02:15:20.189Z,16.14
2023-07-08T02:17:48.722Z,16.13
2023-07-08T02:20:17.534Z,16.12
2023-07-08T02:22:45.934Z,16.10
2023-07-08T02:25:14.457Z,16.08
2023-07-08T02:27:43.805Z,16.09
2023-07-08T02:30:12.352Z,16.08
2023-07-08T02:32:41.202Z,16.07
2023-07-08T02:35:10.469Z,16.07
2023-07-08T02:37:38.996Z,16.05
2023-07-08T02:40:08.484Z,16.02
2023-07-08T02:42:36.907Z,16.01
2023-07-08T02:45:07.436Z,16.00
2023-07-08T02:47:35.899Z,16.00
2023-07-08T02:50:05.932Z,15.99
2023-07-08T02:52:34.424Z,15.98
2023-07-08T02:55:03.836Z,15.97
2023-07-08T02:57:32.313Z,15.95
2023-07-08T03:00:00.779Z,15.94
2023-07-08T03:02:29.326Z,15.93
2023-07-08T03:05:02.339Z,15.92
2023-07-08T03:07:30.822Z,15.91
2023-07-08T03:09:59.327Z,15.91
2023-07-08T03:12:27.856Z,15.91
2023-07-08T03:14:56.447Z,15.90
2023-07-08T03:17:25.101Z,15.90
2023-07-08T03:19:53.765Z,15.91
2023-07-08T03:22:22.311Z,15.91
2023-07-08T03:24:51.249Z,15.91
2023-07-08T03:27:22.221Z,15.92
2023-07-08T03:29:52.209Z,15.93
2023-07-08T03:32:20.897Z,15.92
2023-07-08T03:34:49.460Z,15.92
2023-07-08T03:37:18.255Z,15.93
2023-07-08T03:39:46.702Z,15.94
2023-07-08T03:42:15.184Z,15.97
2023-07-08T03:44:43.722Z,15.98
2023-07-08T03:47:12.518Z,15.99
2023-07-08T03:49:41.628Z,16.01
2023-07-08T03:52:17.348Z,16.01
2023-07-08T03:54:46.037Z,16.02
2023-07-08T03:57:14.536Z,16.03
2023-07-08T03:59:43.452Z,16.04
2023-07-08T04:02:13.140Z,16.03
2023-07-08T04:04:41.687Z,16.06
2023-07-08T04:07:13.810Z,16.06
2023-07-08T04:09:45.271Z,16.08
2023-07-08T04:12:15.967Z,16.10
2023-07-08T04:14:44.363Z,16.12
2023-07-08T04:17:13.914Z,16.13
2023-07-08T04:19:45.358Z,16.17
2023-07-08T04:22:13.896Z,16.23
2023-07-08T04:24:42.389Z,16.26
2023-07-08T04:27:18.400Z,16.29
2023-07-08T04:29:47.081Z,16.34
2023-07-08T04:32:15.525Z,16.39
2023-07-08T04:34:43.922Z,16.44
2023-07-08T04:37:13.857Z,16.52
2023-07-08T04:39:42.257Z,16.62
2023-07-08T04:42:10.670Z,16.69
2023-07-08T04:44:39.203Z,16.74
2023-07-08T04:47:10.218Z,16.76
2023-07-08T04:49:38.637Z,16.79
2023-07-08T04:52:07.132Z,16.81
2023-07-08T04:54:35.516Z,16.83
2023-07-08T04:57:04.350Z,16.86
2023-07-08T04:59:35.886Z,16.89
2023-07-08T05:02:04.619Z,16.90
2023-07-08T05:04:33.334Z,16.93
2023-07-08T05:07:01.751Z,16.98
2023-07-08T05:09:30.495Z,17.01
2023-07-08T05:11:58.859Z,17.05
2023-07-08T05:14:27.311Z,17.08
2023-07-08T05:16:58.220Z,17.10
2023-07-08T05:19:26.896Z,17.12
2023-07-08T05:21:55.715Z,17.16
2023-07-08T05:24:24.255Z,17.18
2023-07-08T05:26:52.662Z,17.21
2023-07-08T05:29:21.059Z,17.24
2023-07-08T05:31:49.607Z,17.27
2023-07-08T05:34:18.188Z,17.31
2023-07-08T05:36:46.727Z,17.34
2023-07-08T05:39:15.120Z,17.38
2023-07-08T05:41:43.534Z,17.42
2023-07-08T05:44:11.862Z,17.45
2023-07-08T05:46:40.482Z,17.47
2023-07-08T05:49:09.179Z,17.47
2023-07-08T05:51:38.265Z,17.47
2023-07-08T05:54:06.826Z,17.51
2023-07-08T05:56:35.409Z,17.58
2023-07-08T05:59:04.951Z,17.65
2023-07-08T06:01:33.945Z,17.73
2023-07-08T06:04:02.409Z,17.79
2023-07-08T06:06:31.098Z,17.83
2023-07-08T06:08:59.493Z,17.86
2023-07-08T06:11:28.147Z,17.88
2023-07-08T06:13:58.972Z,17.92
2023-07-08T06:16:40.307Z,18.00
2023-07-08T06:19:10.682Z,18.08
2023-07-08T06:21:39.619Z,18.14
2023-07-08T06:24:08.487Z,18.21
2023-07-08T06:26:37.312Z,18.25
2023-07-08T06:29:06.667Z,18.29
2023-07-08T06:31:35.280Z,18.37
2023-07-08T06:34:03.956Z,18.47
2023-07-08T06:36:32.907Z,18.58
2023-07-08T06:39:01.399Z,18.69
2023-07-08T06:41:29.894Z,18.83
2023-07-08T06:43:59.318Z,18.94
2023-07-08T06:46:31.210Z,19.06
2023-07-08T06:48:59.783Z,19.20
2023-07-08T06:51:28.857Z,19.36
2023-07-08T06:53:57.321Z,19.54
2023-07-08T06:56:25.737Z,19.69
2023-07-08T06:58:54.242Z,19.79
2023-07-08T07:01:22.726Z,19.92
2023-07-08T07:03:51.762Z,20.12
2023-07-08T07:06:20.464Z,20.33
2023-07-08T07:08:49.772Z,20.58
2023-07-08T07:11:20.575Z,20.91
2023-07-08T07:13:49.166Z,21.23
2023-07-08T07:16:17.743Z,21.54
2023-07-08T07:18:46.482Z,21.79
2023-07-08T07:21:15.007Z,22.01
2023-07-08T07:23:43.495Z,22.22
2023-07-08T07:26:11.950Z,22.37
2023-07-08T07:28:40.398Z,22.46
2023-07-08T07:31:08.967Z,22.67
2023-07-08T07:33:37.459Z,22.93
2023-07-08T07:36:06.122Z,23.17
2023-07-08T07:38:35.316Z,23.41
2023-07-08T07:41:07.510Z,23.67
2023-07-08T07:43:36.058Z,23.91
2023-07-08T07:46:06.761Z,24.13
2023-07-08T07:48:35.612Z,24.34
2023-07-08T07:51:04.399Z,24.45
2023-07-08T07:53:32.940Z,24.55
2023-07-08T07:56:03.868Z,24.71
2023-07-08T07:58:34.103Z,24.85
2023-07-08T08:01:03.018Z,24.83
2023-07-08T08:03:31.630Z,24.70
2023-07-08T08:06:00.332Z,24.67
2023-07-08T08:08:29.255Z,24.76
2023-07-08T08:10:58.343Z,24.84
2023-07-08T08:13:27.177Z,24.78
2023-07-08T08:16:01.508Z,24.93
2023-07-08T08:18:30.440Z,25.17
2023-07-08T08:20:58.892Z,25.37
2023-07-08T08:23:27.859Z,25.52
2023-07-08T08:25:56.391Z,25.58
2023-07-08T08:28:24.898Z,25.69
2023-07-08T08:30:53.338Z,25.82
2023-07-08T08:33:21.968Z,25.91
2023-07-08T08:35:50.394Z,25.97
2023-07-08T08:38:18.997Z,26.02
2023-07-08T08:40:47.820Z,26.07
2023-07-08T08:43:22.306Z,26.07
2023-07-08T08:46:13.278Z,26.07
2023-07-08T08:48:57.897Z,26.16
2023-07-08T08:51:29.548Z,26.04
2023-07-08T08:53:59.398Z,25.99
2023-07-08T08:56:30.902Z,25.97
2023-07-08T08:59:27.118Z,25.97
2023-07-08T09:01:57.617Z,26.00
2023-07-08T09:04:35.251Z,26.01
2023-07-08T09:07:15.103Z,26.02
2023-07-08T09:10:05.824Z,26.11
2023-07-08T09:12:35.458Z,26.19
2023-07-08T09:15:16.088Z,26.33
2023-07-08T09:17:44.886Z,26.35
2023-07-08T09:20:24.276Z,26.36
2023-07-08T09:23:11.520Z,26.49
2023-07-08T09:25:53.822Z,26.51
2023-07-08T09:28:22.317Z,26.39
2023-07-08T09:30:55.261Z,26.46
2023-07-08T09:33:25.932Z,26.62
2023-07-08T09:35:54.494Z,26.76
2023-07-08T09:38:24.290Z,26.88
2023-07-08T09:40:57.896Z,26.96
2023-07-08T09:43:39.075Z,26.97
2023-07-08T09:46:13.786Z,27.01
2023-07-08T09:48:42.286Z,27.10
2023-07-08T09:51:10.701Z,27.15
2023-07-08T09:53:39.229Z,27.18
2023-07-08T09:56:10.756Z,27.17
2023-07-08T09:58:48.733Z,27.13
2023-07-08T10:01:26.663Z,27.11
2023-07-08T10:04:00.328Z,27.10
2023-07-08T10:06:34.240Z,27.10
2023-07-08T10:09:13.815Z,27.16
2023-07-08T10:11:52.408Z,27.20
2023-07-08T10:14:26.750Z,27.22
2023-07-08T10:16:55.702Z,27.29
2023-07-08T10:19:24.660Z,27.46
2023-07-08T10:22:34.705Z,27.59
2023-07-08T10:25:24.637Z,27.79
2023-07-08T10:28:30.125Z,27.90
2023-07-08T10:31:01.764Z,28.02
2023-07-08T10:33:57.748Z,28.09
2023-07-08T10:36:37.997Z,28.10
2023-07-08T10:39:44.881Z,27.94
2023-07-08T10:42:46.759Z,27.93
2023-07-08T10:45:22.378Z,28.04
2023-07-08T10:48:46.457Z,28.15
2023-07-08T10:51:47.116Z,28.20
2023-07-08T10:54:43.519Z,28.32
2023-07-08T10:57:36.097Z,28.44
2023-07-08T11:00:22.334Z,28.59
2023-07-08T11:03:05.631Z,28.70
2023-07-08T11:05:42.420Z,28.79
2023-07-08T11:08:13.904Z,28.79
2023-07-08T11:10:51.881Z,28.72
2023-07-08T11:13:26.409Z,28.66
2023-07-08T11:16:16.673Z,28.56
2023-07-08T11:19:27.621Z,28.51
2023-07-08T11:22:00.394Z,28.33
2023-07-08T11:24:39.205Z,28.26
2023-07-08T11:27:25.569Z,28.29
2023-07-08T11:30:18.736Z,28.29
2023-07-08T11:32:50.047Z,28.27
2023-07-08T11:35:23.263Z,28.29
2023-07-08T11:37:52.255Z,28.24
2023-07-08T11:40:23.515Z,28.05
2023-07-08T11:42:59.712Z,27.83
2023-07-08T11:45:28.494Z,27.58
2023-07-08T11:48:14.128Z,27.38
2023-07-08T11:50:45.784Z,27.18
2023-07-08T11:53:39.322Z,27.00
2023-07-08T11:56:22.117Z,26.84
2023-07-08T11:58:50.571Z,26.69
2023-07-08T12:01:19.293Z,26.69
2023-07-08T12:04:16.670Z,26.82
2023-07-08T12:06:50.200Z,27.02
2023-07-08T12:09:28.319Z,27.15
2023-07-08T12:12:01.245Z,27.32
2023-07-08T12:14:30.879Z,27.52
2023-07-08T12:17:00.594Z,27.73
2023-07-08T12:19:35.849Z,27.96
2023-07-08T12:22:05.992Z,28.12
2023-07-08T12:24:34.440Z,28.23
2023-07-08T12:27:04.089Z,28.37
2023-07-08T12:29:33.668Z,28.44
2023-07-08T12:32:02.345Z,28.59
2023-07-08T12:34:31.108Z,28.77
2023-07-08T12:36:59.710Z,28.95
2023-07-08T12:39:33.793Z,28.99
2023-07-08T12:42:02.484Z,29.07
2023-07-08T12:44:30.936Z,29.22
2023-07-08T12:47:04.282Z,29.39
2023-07-08T12:49:35.190Z,29.51
2023-07-08T12:52:03.888Z,29.61
2023-07-08T12:54:34.764Z,29.64
2023-07-08T12:57:03.818Z,29.69
2023-07-08T12:59:32.282Z,29.65
2023-07-08T13:02:00.920Z,29.52
2023-07-08T13:04:29.575Z,29.44
2023-07-08T13:06:58.034Z,29.38
2023-07-08T13:09:39.966Z,29.27
2023-07-08T13:12:18.926Z,29.16
2023-07-08T13:14:47.757Z,29.05
2023-07-08T13:17:17.862Z,28.91
2023-07-08T13:19:47.075Z,28.79
2023-07-08T13:22:21.397Z,28.83
2023-07-08T13:24:59.448Z,28.97
2023-07-08T13:27:28.545Z,29.09
2023-07-08T13:30:10.057Z,29.14
2023-07-08T13:32:38.880Z,29.18
2023-07-08T13:35:24.885Z,29.18
2023-07-08T13:37:53.445Z,29.06
2023-07-08T13:40:22.101Z,28.96
2023-07-08T13:42:53.817Z,28.96
2023-07-08T13:45:28.304Z,28.99
2023-07-08T13:48:24.169Z,29.06
2023-07-08T13:51:16.643Z,29.01
2023-07-08T13:53:55.974Z,29.06
2023-07-08T13:56:29.264Z,29.14
2023-07-08T13:59:05.022Z,29.01
2023-07-08T14:01:35.945Z,28.71
2023-07-08T14:04:05.413Z,28.46
2023-07-08T14:06:38.349Z,28.38
2023-07-08T14:09:21.874Z,28.32
2023-07-08T14:11:52.102Z,28.25
2023-07-08T14:14:20.821Z,28.16
2023-07-08T14:16:52.389Z,28.14
2023-07-08T14:19:26.287Z,28.16
2023-07-08T14:21:57.850Z,28.16
2023-07-08T14:24:27.010Z,28.20
2023-07-08T14:26:55.686Z,28.18
2023-07-08T14:29:24.262Z,28.14
2023-07-08T14:31:52.836Z,28.10
2023-07-08T14:34:27.289Z,28.06
2023-07-08T14:36:55.783Z,28.07
2023-07-08T14:39:24.265Z,28.03
2023-07-08T14:41:52.787Z,27.93
2023-07-08T14:44:21.233Z,27.74
2023-07-08T14:46:54.651Z,27.63
2023-07-08T14:49:24.760Z,27.67
2023-07-08T14:51:53.312Z,27.64
2023-07-08T14:54:22.809Z,27.58
2023-07-08T14:56:51.537Z,27.52
2023-07-08T14:59:23.208Z,27.39
2023-07-08T15:01:53.857Z,27.21
2023-07-08T15:04:22.245Z,27.18
2023-07-08T15:06:51.865Z,27.02
2023-07-08T15:09:20.203Z,26.96
2023-07-08T15:11:49.158Z,26.95
2023-07-08T15:14:24.159Z,26.97
2023-07-08T15:16:53.692Z,26.95
2023-07-08T15:19:23.776Z,26.91
2023-07-08T15:21:52.068Z,26.88
2023-07-08T15:24:20.473Z,26.86
2023-07-08T15:26:50.303Z,26.83
2023-07-08T15:29:21.994Z,26.84
2023-07-08T15:31:50.899Z,26.81
2023-07-08T15:34:21.824Z,26.80
2023-07-08T15:36:50.948Z,26.78
2023-07-08T15:39:19.279Z,26.73
2023-07-08T15:41:47.664Z,26.67
2023-07-08T15:44:16.216Z,26.57
2023-07-08T15:46:51.609Z,26.48
2023-07-08T15:49:24.111Z,26.42
2023-07-08T15:51:52.529Z,26.40
2023-07-08T15:54:21.013Z,26.33
2023-07-08T15:56:54.595Z,26.30
2023-07-08T15:59:26.952Z,26.30
2023-07-08T16:01:55.830Z,26.26
2023-07-08T16:04:27.684Z,26.18
2023-07-08T16:06:56.038Z,26.11
2023-07-08T16:09:24.561Z,26.08
2023-07-08T16:11:53.207Z,26.05
2023-07-08T16:14:22.483Z,25.98
2023-07-08T16:16:52.448Z,25.90
2023-07-08T16:19:20.888Z,25.86
2023-07-08T16:21:49.201Z,25.81
2023-07-08T16:24:17.593Z,25.75
2023-07-08T16:26:45.905Z,25.69
2023-07-08T16:29:17.713Z,25.65
2023-07-08T16:31:47.210Z,25.58
2023-07-08T16:34:15.955Z,25.48
2023-07-08T16:36:44.355Z,25.41
2023-07-08T16:39:12.736Z,25.37
2023-07-08T16:41:41.132Z,25.32
2023-07-08T16:44:17.147Z,25.21
2023-07-08T16:46:45.605Z,25.11
2023-07-08T16:49:19.204Z,25.03
2023-07-08T16:51:47.531Z,24.98
2023-07-08T16:54:19.309Z,24.91
2023-07-08T16:56:48.353Z,24.86
2023-07-08T16:59:17.685Z,24.82
2023-07-08T17:01:47.378Z,24.75
2023-07-08T17:04:16.023Z,24.66
2023-07-08T17:06:44.536Z,24.52
2023-07-08T17:09:14.087Z,24.36
2023-07-08T17:11:42.947Z,24.17
2023-07-08T17:14:13.286Z,23.98
2023-07-08T17:16:42.170Z,23.84
2023-07-08T17:19:11.726Z,23.74
2023-07-08T17:21:40.227Z,23.65
2023-07-08T17:24:11.935Z,23.56
2023-07-08T17:26:40.932Z,23.40
2023-07-08T17:29:10.961Z,23.28
2023-07-08T17:31:47.665Z,23.18
2023-07-08T17:34:28.292Z,23.02
2023-07-08T17:36:57.093Z,22.93
2023-07-08T17:39:25.467Z,22.85
2023-07-08T17:41:54.012Z,22.73
2023-07-08T17:44:23.124Z,22.66
2023-07-08T17:46:51.729Z,22.51
2023-07-08T17:49:20.160Z,22.40
2023-07-08T17:51:50.979Z,22.29
2023-07-08T17:54:21.257Z,22.22
2023-07-08T17:56:51.077Z,22.12
2023-07-08T17:59:22.199Z,22.02
2023-07-08T18:01:51.242Z,21.94
2023-07-08T18:04:19.709Z,21.88
2023-07-08T18:06:48.096Z,21.80
2023-07-08T18:09:16.412Z,21.71
2023-07-08T18:11:47.762Z,21.61
2023-07-08T18:14:16.749Z,21.53
2023-07-08T18:16:45.886Z,21.41
2023-07-08T18:19:14.540Z,21.31
2023-07-08T18:21:44.648Z,21.21
2023-07-08T18:24:13.773Z,21.10
2023-07-08T18:26:42.376Z,21.01
2023-07-08T18:29:13.522Z,20.91
2023-07-08T18:31:45.323Z,20.82
2023-07-08T18:34:14.478Z,20.71
2023-07-08T18:36:43.188Z,20.62
2023-07-08T18:39:11.640Z,20.52
2023-07-08T18:41:44.802Z,20.44
2023-07-08T18:44:30.138Z,20.37
2023-07-08T18:46:58.577Z,20.28
2023-07-08T18:49:27.135Z,20.20
2023-07-08T18:51:55.778Z,20.13
2023-07-08T18:54:24.327Z,20.05
2023-07-08T18:56:52.697Z,19.99
2023-07-08T18:59:21.018Z,19.90
2023-07-08T19:01:49.799Z,19.81
2023-07-08T19:04:26.901Z,19.73
2023-07-08T19:06:59.507Z,19.64
2023-07-08T19:09:29.549Z,19.55
2023-07-08T19:11:58.016Z,19.46
2023-07-08T19:14:26.482Z,19.39
2023-07-08T19:16:54.874Z,19.34
2023-07-08T19:19:23.317Z,19.28
2023-07-08T19:21:54.948Z,19.25
2023-07-08T19:24:36.079Z,19.19
2023-07-08T19:27:16.548Z,19.13
2023-07-08T19:29:45.417Z,19.09
2023-07-08T19:32:17.054Z,19.05
2023-07-08T19:34:49.295Z,19.00
2023-07-08T19:37:19.176Z,18.95
2023-07-08T19:39:47.541Z,18.91
2023-07-08T19:42:20.575Z,18.87
2023-07-08T19:44:49.134Z,18.82
2023-07-08T19:47:17.590Z,18.78
2023-07-08T19:49:45.940Z,18.73
2023-07-08T19:52:14.371Z,18.70
2023-07-08T19:54:42.703Z,18.66
2023-07-08T19:57:11.830Z,18.63
2023-07-08T19:59:40.215Z,18.60
2023-07-08T20:02:15.356Z,18.57
2023-07-08T20:04:49.223Z,18.55
2023-07-08T20:07:17.993Z,18.51
2023-07-08T20:09:46.464Z,18.47
2023-07-08T20:12:15.584Z,18.44
2023-07-08T20:14:44.481Z,18.41
2023-07-08T20:17:16.713Z,18.37
2023-07-08T20:19:45.209Z,18.33
2023-07-08T20:22:17.532Z,18.30
2023-07-08T20:24:45.869Z,18.23
2023-07-08T20:27:14.357Z,18.18
2023-07-08T20:29:42.806Z,18.14
2023-07-08T20:32:15.385Z,18.09
2023-07-08T20:34:43.903Z,18.02
2023-07-08T20:37:15.368Z,17.96
2023-07-08T20:39:44.078Z,17.92
2023-07-08T20:42:14.391Z,17.86
2023-07-08T20:44:42.759Z,17.81
2023-07-08T20:47:20.258Z,17.76
2023-07-08T20:49:48.554Z,17.76
2023-07-08T20:52:19.807Z,17.74
2023-07-08T20:54:51.352Z,17.73
2023-07-08T20:57:21.370Z,17.72
2023-07-08T20:59:50.030Z,17.71
2023-07-08T21:02:26.267Z,17.69
2023-07-08T21:04:54.845Z,17.69
2023-07-08T21:07:23.456Z,17.68
2023-07-08T21:09:51.869Z,17.67
2023-07-08T21:12:20.255Z,17.62
2023-07-08T21:14:48.569Z,17.58
2023-07-08T21:17:19.275Z,17.55
2023-07-08T21:19:47.745Z,17.50
2023-07-08T21:22:16.121Z,17.49
2023-07-08T21:24:44.479Z,17.48
2023-07-08T21:27:23.318Z,17.47
2023-07-08T21:29:51.736Z,17.46
2023-07-08T21:32:20.182Z,17.43
2023-07-08T21:34:48.525Z,17.41
2023-07-08T21:37:16.906Z,17.38
2023-07-08T21:39:46.608Z,17.35
2023-07-08T21:42:15.215Z,17.33
2023-07-08T21:44:43.588Z,17.31
2023-07-08T21:47:11.973Z,17.30
2023-07-08T21:49:40.309Z,17.28
2023-07-08T21:52:10.253Z,17.28
2023-07-08T21:54:38.586Z,17.28
2023-07-08T21:57:07.188Z,17.24
2023-07-08T21:59:35.576Z,17.23
2023-07-08T22:02:03.977Z,17.22
2023-07-08T22:04:37.689Z,17.19
2023-07-08T22:07:13.622Z,17.15
2023-07-08T22:09:41.975Z,17.11
2023-07-08T22:12:13.839Z,17.09
2023-07-08T22:14:42.817Z,17.06
2023-07-08T22:17:16.786Z,17.04
2023-07-08T22:19:45.290Z,17.02
2023-07-08T22:22:13.693Z,17.01
2023-07-08T22:24:42.035Z,17.01
2023-07-08T22:27:10.422Z,16.99
2023-07-08T22:29:38.787Z,16.99
2023-07-08T22:32:10.346Z,16.96
2023-07-08T22:34:38.630Z,16.93
2023-07-08T22:37:09.922Z,16.90
2023-07-08T22:39:38.311Z,16.85
2023-07-08T22:42:09.366Z,16.82
2023-07-08T22:44:37.700Z,16.79
2023-07-08T22:47:10.180Z,16.76
2023-07-08T22:49:39.650Z,16.75
2023-07-08T22:52:18.673Z,16.71
2023-07-08T22:54:47.047Z,16.68
2023-07-08T22:57:15.392Z,16.64
2023-07-08T22:59:43.732Z,16.62
2023-07-08T23:02:12.116Z,16.60
2023-07-08T23:04:40.438Z,16.59
2023-07-08T23:07:10.867Z,16.57
2023-07-08T23:09:39.154Z,16.55
2023-07-08T23:12:10.216Z,16.52
2023-07-08T23:14:38.625Z,16.49
2023-07-08T23:17:13.079Z,16.46
2023-07-08T23:19:41.501Z,16.43
2023-07-08T23:22:18.308Z,16.40
2023-07-08T23:24:47.767Z,16.37
2023-07-08T23:27:19.077Z,16.35
2023-07-08T23:29:47.497Z,16.33
2023-07-08T23:32:18.592Z,16.30
2023-07-08T23:34:47.014Z,16.27
2023-07-08T23:37:17.526Z,16.23
2023-07-08T23:39:45.934Z,16.21
2023-07-08T23:42:15.534Z,16.19
2023-07-08T23:44:44.328Z,16.16
2023-07-08T23:47:27.457Z,16.11
2023-07-08T23:49:55.823Z,16.07
2023-07-08T23:52:24.075Z,16.03
2023-07-08T23:54:52.372Z,15.99
2023-07-08T23:57:22.978Z,15.96
2023-07-08T23:59:53.276Z,15.94
